createdAt,value
2023-02-11T00:01:05.634Z,3.20
2023-02-11T00:03:32.461Z,3.20
2023-02-11T00:06:04.799Z,3.20
2023-02-11T00:08:31.856Z,3.20
2023-02-11T00:10:58.969Z,3.30
2023-02-11T00:13:26.253Z,3.30
2023-02-11T00:15:53.923Z,3.30
2023-02-11T00:18:20.808Z,3.40
2023-02-11T00:20:47.496Z,3.40
2023-02-11T00:23:14.884Z,3.40
2023-02-11T00:25:43.495Z,3.30
2023-02-11T00:28:10.938Z,3.40
2023-02-11T00:30:40.839Z,3.30
2023-02-11T00:33:08.180Z,3.30
2023-02-11T00:35:37.947Z,3.30
2023-02-11T00:38:04.727Z,3.30
2023-02-11T00:40:31.414Z,3.30
2023-02-11T00:42:58.103Z,3.40
2023-02-11T00:45:24.890Z,3.40
2023-02-11T00:47:51.544Z,3.40
2023-02-11T00:50:18.383Z,3.40
2023-02-11T00:52:45.130Z,3.40
2023-02-11T00:55:11.868Z,3.50
2023-02-11T00:57:38.579Z,3.40
2023-02-11T01:00:07.151Z,3.50
2023-02-11T01:02:34.211Z,3.50
2023-02-11T01:05:01.172Z,3.50
2023-02-11T01:07:28.679Z,3.50
2023-02-11T01:09:55.476Z,3.60
2023-02-11T01:12:22.629Z,3.60
2023-02-11T01:14:49.325Z,3.70
2023-02-11T01:17:19.221Z,3.70
2023-02-11T01:19:45.948Z,3.80
2023-02-11T01:22:12.702Z,3.80
2023-02-11T01:24:39.410Z,3.80
2023-02-11T01:27:07.586Z,3.90
2023-02-11T01:29:34.457Z,3.90
2023-02-11T01:32:01.455Z,4.00
2023-02-11T01:34:28.580Z,3.90
2023-02-11T01:36:59.157Z,4.00
2023-02-11T01:39:28.809Z,4.00
2023-02-11T01:41:55.467Z,4.00
2023-02-11T01:44:40.016Z,4.00
2023-02-11T01:47:06.790Z,3.90
2023-02-11T01:49:41.310Z,3.90
2023-02-11T01:52:10.804Z,3.90
2023-02-11T01:55:02.459Z,3.90
2023-02-11T01:57:32.493Z,3.80
2023-02-11T02:00:13.766Z,3.80
2023-02-11T02:02:56.462Z,3.80
2023-02-11T02:05:54.343Z,3.90
2023-02-11T02:08:32.808Z,3.90
2023-02-11T02:11:02.343Z,3.90
2023-02-11T02:13:31.067Z,3.80
2023-02-11T02:15:59.481Z,3.80
2023-02-11T02:18:36.619Z,3.80
2023-02-11T02:21:45.598Z,3.80
2023-02-11T02:24:39.732Z,3.80
2023-02-11T02:27:26.157Z,3.90
2023-02-11T02:30:09.243Z,3.80
2023-02-11T02:33:22.406Z,3.80
2023-02-11T02:36:14.748Z,3.80
2023-02-11T02:38:51.185Z,3.90
2023-02-11T02:41:21.333Z,4.00
2023-02-11T02:43:50.134Z,4.00
2023-02-11T02:46:23.420Z,4.00
2023-02-11T02:48:52.748Z,4.00
2023-02-11T02:51:46.670Z,4.00
2023-02-11T02:54:41.313Z,4.00
2023-02-11T02:57:20.332Z,4.10
2023-02-11T03:03:28.527Z,4.00
2023-02-11T03:06:04.326Z,4.00
2023-02-11T03:08:51.094Z,4.00
2023-02-11T03:11:20.227Z,4.00
2023-02-11T03:13:48.434Z,4.00
2023-02-11T03:16:18.646Z,4.10
2023-02-11T03:18:50.399Z,4.10
2023-02-11T03:21:19.568Z,4.10
2023-02-11T03:24:00.652Z,4.10
2023-02-11T03:26:43.228Z,4.10
2023-02-11T03:29:28.337Z,4.10
2023-02-11T03:32:16.337Z,4.10
2023-02-11T03:34:45.779Z,4.10
2023-02-11T03:37:18.232Z,4.20
2023-02-11T03:39:51.542Z,4.10
2023-02-11T03:42:19.644Z,4.20
2023-02-11T03:44:53.427Z,4.20
2023-02-11T03:47:23.600Z,4.20
2023-02-11T03:49:53.210Z,4.20
2023-02-11T03:52:21.512Z,4.20
2023-02-11T03:54:53.779Z,4.30
2023-02-11T03:57:20.612Z,4.30
2023-02-11T04:00:06.579Z,4.30
2023-02-11T04:02:39.574Z,4.30
2023-02-11T04:05:08.074Z,4.30
2023-02-11T04:07:34.979Z,4.30
2023-02-11T04:10:02.234Z,4.30
2023-02-11T04:12:29.014Z,4.20
2023-02-11T04:14:55.713Z,4.20
2023-02-11T04:17:22.543Z,4.30
2023-02-11T04:19:49.227Z,4.30
2023-02-11T04:22:15.960Z,4.30
2023-02-11T04:24:44.080Z,4.40
2023-02-11T04:27:10.830Z,4.40
2023-02-11T04:29:37.733Z,4.40
2023-02-11T04:32:04.603Z,4.40
2023-02-11T04:34:31.414Z,4.50
2023-02-11T04:36:58.136Z,4.40
2023-02-11T04:39:24.860Z,4.40
2023-02-11T04:41:51.586Z,4.40
2023-02-11T04:44:18.339Z,4.40
2023-02-11T04:46:45.116Z,4.40
2023-02-11T04:49:16.346Z,4.40
2023-02-11T04:51:46.500Z,4.40
2023-02-11T04:54:15.058Z,4.40
2023-02-11T04:56:41.763Z,4.40
2023-02-11T04:59:08.717Z,4.40
2023-02-11T05:01:35.572Z,4.40
2023-02-11T05:04:02.382Z,4.40
2023-02-11T05:06:29.096Z,4.40
2023-02-11T05:08:55.901Z,4.40
2023-02-11T05:11:24.350Z,4.40
2023-02-11T05:13:51.453Z,4.40
2023-02-11T05:16:19.040Z,4.40
2023-02-11T05:18:46.257Z,4.40
2023-02-11T05:21:16.670Z,4.40
2023-02-11T05:23:44.141Z,4.40
2023-02-11T05:26:11.476Z,4.40
2023-02-11T05:28:38.842Z,4.50
2023-02-11T05:31:05.985Z,4.40
2023-02-11T05:33:32.717Z,4.40
2023-02-11T05:36:04.317Z,4.50
2023-02-11T05:38:30.964Z,4.50
2023-02-11T05:40:57.753Z,4.50
2023-02-11T05:43:24.534Z,4.50
2023-02-11T05:45:51.602Z,4.50
2023-02-11T05:48:18.841Z,4.50
2023-02-11T05:50:45.891Z,4.60
2023-02-11T05:53:12.651Z,4.50
2023-02-11T05:55:39.589Z,4.50
2023-02-11T05:58:07.887Z,4.50
2023-02-11T06:00:35.294Z,4.50
2023-02-11T06:03:02.001Z,4.50
2023-02-11T06:05:28.701Z,4.50
2023-02-11T06:07:55.376Z,4.50
2023-02-11T06:10:22.256Z,4.50
2023-02-11T06:12:48.963Z,4.50
2023-02-11T06:15:15.694Z,4.60
2023-02-11T06:17:42.334Z,4.50
2023-02-11T06:20:10.549Z,4.60
2023-02-11T06:22:37.375Z,4.60
2023-02-11T06:25:04.565Z,4.60
2023-02-11T06:27:31.381Z,4.50
2023-02-11T06:29:58.139Z,4.50
2023-02-11T06:32:42.678Z,4.50
2023-02-11T06:35:12.162Z,4.50
2023-02-11T06:37:39.979Z,4.50
2023-02-11T06:40:07.155Z,4.50
2023-02-11T06:42:34.667Z,4.50
2023-02-11T06:45:01.436Z,4.60
2023-02-11T06:47:28.130Z,4.60
2023-02-11T06:49:54.825Z,4.60
2023-02-11T06:52:21.535Z,4.60
2023-02-11T06:54:48.465Z,4.60
2023-02-11T06:57:15.147Z,4.50
2023-02-11T06:59:41.975Z,4.50
2023-02-11T07:02:11.814Z,4.60
2023-02-11T07:04:38.553Z,4.50
2023-02-11T07:07:05.302Z,4.50
2023-02-11T07:09:32.035Z,4.50
2023-02-11T07:11:58.744Z,4.60
2023-02-11T07:14:25.618Z,4.70
2023-02-11T07:16:52.348Z,4.70
2023-02-11T07:19:19.081Z,4.80
2023-02-11T07:21:45.842Z,4.90
2023-02-11T07:24:13.270Z,4.70
2023-02-11T07:26:40.240Z,4.80
2023-02-11T07:29:07.146Z,4.80
2023-02-11T07:31:34.130Z,4.90
2023-02-11T07:34:01.770Z,4.90
2023-02-11T07:36:30.261Z,4.90
2023-02-11T07:38:57.164Z,4.90
2023-02-11T07:41:25.566Z,5.00
2023-02-11T07:43:52.332Z,4.90
2023-02-11T07:46:25.577Z,4.90
2023-02-11T07:48:53.084Z,4.90
2023-02-11T07:51:25.522Z,5.00
2023-02-11T07:53:53.375Z,4.90
2023-02-11T07:56:21.258Z,4.90
2023-02-11T07:58:48.734Z,4.90
2023-02-11T08:01:18.970Z,5.00
2023-02-11T08:03:46.037Z,4.90
2023-02-11T08:06:15.615Z,4.90
2023-02-11T08:08:42.962Z,5.00
2023-02-11T08:11:30.826Z,5.10
2023-02-11T08:13:57.636Z,5.10
2023-02-11T08:16:33.881Z,5.10
2023-02-11T08:19:03.979Z,5.10
2023-02-11T08:21:30.852Z,5.20
2023-02-11T08:23:57.840Z,5.10
2023-02-11T08:26:30.208Z,5.20
2023-02-11T08:28:57.963Z,5.20
2023-02-11T08:31:31.573Z,5.30
2023-02-11T08:33:58.667Z,5.30
2023-02-11T08:36:29.243Z,5.30
2023-02-11T08:39:08.538Z,5.30
2023-02-11T08:41:39.190Z,5.30
2023-02-11T08:44:06.057Z,5.30
2023-02-11T08:46:32.861Z,5.30
2023-02-11T08:48:59.602Z,5.30
2023-02-11T08:51:28.596Z,5.20
2023-02-11T08:53:56.016Z,5.30
2023-02-11T08:56:23.685Z,5.20
2023-02-11T08:58:51.303Z,5.20
2023-02-11T09:01:24.234Z,5.30
2023-02-11T09:03:50.948Z,5.20
2023-02-11T09:06:18.739Z,5.10
2023-02-11T09:08:49.425Z,5.20
2023-02-11T09:11:18.018Z,5.20
2023-02-11T09:13:45.207Z,5.20
2023-02-11T09:16:21.586Z,5.20
2023-02-11T09:18:48.938Z,5.20
2023-02-11T09:21:17.598Z,5.20
2023-02-11T09:23:44.885Z,5.30
2023-02-11T09:26:15.294Z,5.30
2023-02-11T09:28:42.219Z,5.30
2023-02-11T09:31:12.122Z,5.30
2023-02-11T09:33:42.178Z,5.30
2023-02-11T09:36:09.257Z,5.30
2023-02-11T09:38:36.059Z,5.20
2023-02-11T09:41:07.635Z,5.20
2023-02-11T09:43:45.015Z,5.20
2023-02-11T09:46:17.005Z,5.20
2023-02-11T09:48:46.296Z,5.30
2023-02-11T09:51:20.489Z,5.30
2023-02-11T09:53:49.401Z,5.40
2023-02-11T09:56:16.070Z,5.40
2023-02-11T09:58:44.490Z,5.40
2023-02-11T10:01:48.091Z,5.40
2023-02-11T10:04:43.940Z,5.40
2023-02-11T10:07:31.041Z,5.30
2023-02-11T10:10:39.351Z,5.30
2023-02-11T10:13:21.491Z,5.40
2023-02-11T10:16:19.437Z,5.50
2023-02-11T10:18:51.393Z,5.70
2023-02-11T10:21:46.474Z,5.80
2023-02-11T10:24:16.073Z,5.80
2023-02-11T10:26:44.460Z,5.80
2023-02-11T10:29:29.069Z,5.80
2023-02-11T10:31:58.399Z,5.80
2023-02-11T10:34:25.285Z,5.90
2023-02-11T10:36:52.083Z,5.90
2023-02-11T10:39:19.999Z,5.90
2023-02-11T10:42:05.114Z,5.90
2023-02-11T10:44:38.808Z,6.00
2023-02-11T10:47:24.031Z,6.00
2023-02-11T10:49:50.916Z,6.00
2023-02-11T10:52:17.688Z,6.00
2023-02-11T10:54:58.005Z,6.10
2023-02-11T10:57:30.465Z,6.20
2023-02-11T11:00:08.202Z,6.10
2023-02-11T11:02:38.826Z,6.00
2023-02-11T11:05:33.201Z,6.00
2023-02-11T11:08:05.435Z,6.00
2023-02-11T11:10:44.384Z,6.10
2023-02-11T11:13:26.856Z,6.00
2023-02-11T11:16:29.226Z,6.10
2023-02-11T11:19:08.182Z,6.10
2023-02-11T11:21:51.895Z,6.00
2023-02-11T11:24:29.438Z,5.90
2023-02-11T11:26:59.658Z,5.90
2023-02-11T11:29:39.419Z,5.80
2023-02-11T11:32:15.081Z,5.70
2023-02-11T11:34:45.097Z,5.80
2023-02-11T11:37:11.755Z,5.90
2023-02-11T11:39:39.850Z,5.80
2023-02-11T11:42:29.301Z,5.80
2023-02-11T11:45:02.029Z,5.90
2023-02-11T11:47:52.342Z,6.00
2023-02-11T11:50:45.135Z,6.00
2023-02-11T11:53:29.792Z,6.00
2023-02-11T11:56:03.545Z,6.00
2023-02-11T11:58:32.083Z,6.00
2023-02-11T12:01:16.034Z,6.10
2023-02-11T12:04:22.059Z,6.10
2023-02-11T12:07:25.700Z,6.20
2023-02-11T12:10:14.406Z,6.30
2023-02-11T12:13:07.737Z,6.20
2023-02-11T12:16:07.060Z,6.20
2023-02-11T12:19:14.562Z,6.10
2023-02-11T12:21:49.867Z,6.20
2023-02-11T12:24:39.955Z,6.20
2023-02-11T12:27:17.463Z,6.20
2023-02-11T12:30:19.066Z,6.30
2023-02-11T12:33:09.090Z,6.40
2023-02-11T12:35:56.457Z,6.40
2023-02-11T12:38:43.137Z,6.40
2023-02-11T12:41:15.300Z,6.50
2023-02-11T12:43:44.422Z,6.40
2023-02-11T12:46:37.050Z,6.50
2023-02-11T12:49:17.713Z,6.50
2023-02-11T12:52:19.800Z,6.60
2023-02-11T12:55:03.895Z,6.60
2023-02-11T12:57:37.857Z,6.60
2023-02-11T13:00:10.159Z,6.70
2023-02-11T13:02:54.555Z,6.70
2023-02-11T13:05:33.602Z,6.60
2023-02-11T13:08:14.946Z,6.70
2023-02-11T13:10:45.806Z,6.70
2023-02-11T13:13:28.460Z,6.70
2023-02-11T13:16:10.288Z,6.80
2023-02-11T13:19:03.871Z,6.80
2023-02-11T13:21:38.827Z,6.70
2023-02-11T13:24:15.755Z,6.70
2023-02-11T13:27:12.708Z,6.80
2023-02-11T13:30:20.275Z,7.00
2023-02-11T13:32:56.154Z,7.00
2023-02-11T13:35:33.390Z,7.00
2023-02-11T13:38:23.782Z,7.00
2023-02-11T13:41:04.488Z,7.00
2023-02-11T13:43:33.689Z,7.10
2023-02-11T13:46:01.857Z,7.10
2023-02-11T13:48:32.047Z,7.10
2023-02-11T13:51:10.717Z,7.10
2023-02-11T13:53:54.778Z,7.20
2023-02-11T13:56:34.312Z,7.20
2023-02-11T13:59:04.154Z,7.10
2023-02-11T14:02:08.082Z,7.10
2023-02-11T14:04:53.615Z,7.10
2023-02-11T14:07:48.986Z,7.20
2023-02-11T14:10:43.467Z,7.20
2023-02-11T14:13:32.710Z,7.10
2023-02-11T14:16:17.078Z,7.20
2023-02-11T14:18:47.053Z,7.10
2023-02-11T14:21:23.103Z,7.20
2023-02-11T14:23:55.922Z,7.10
2023-02-11T14:26:42.496Z,7.10
2023-02-11T14:29:35.599Z,7.00
2023-02-11T14:32:21.045Z,7.00
2023-02-11T14:35:06.593Z,7.00
2023-02-11T14:37:33.278Z,7.00
2023-02-11T14:40:58.417Z,6.90
2023-02-11T14:43:41.430Z,6.90
2023-02-11T14:46:09.204Z,6.90
2023-02-11T14:48:38.355Z,6.80
2023-02-11T14:51:20.542Z,6.70
2023-02-11T14:53:51.824Z,6.70
2023-02-11T14:56:21.590Z,6.70
2023-02-11T14:58:51.808Z,6.70
2023-02-11T15:01:35.433Z,6.80
2023-02-11T15:04:05.292Z,6.80
2023-02-11T15:06:46.977Z,6.80
2023-02-11T15:09:20.664Z,6.80
2023-02-11T15:11:49.321Z,6.70
2023-02-11T15:14:26.765Z,6.70
2023-02-11T15:16:55.806Z,6.60
2023-02-11T15:19:34.626Z,6.70
2023-02-11T15:22:04.634Z,6.50
2023-02-11T15:24:33.229Z,6.50
2023-02-11T15:27:00.751Z,6.40
2023-02-11T15:29:42.692Z,6.50
2023-02-11T15:32:09.567Z,6.50
2023-02-11T15:34:37.205Z,6.40
2023-02-11T15:37:04.421Z,6.50
2023-02-11T15:39:36.762Z,6.40
2023-02-11T15:42:50.643Z,6.40
2023-02-11T15:45:28.908Z,6.40
2023-02-11T15:48:18.570Z,6.30
2023-02-11T15:50:58.705Z,6.30
2023-02-11T15:53:48.757Z,6.40
2023-02-11T15:56:46.196Z,6.40
2023-02-11T15:59:35.831Z,6.30
2023-02-11T16:02:16.558Z,6.40
2023-02-11T16:04:51.980Z,6.30
2023-02-11T16:07:49.671Z,6.30
2023-02-11T16:10:36.662Z,6.30
2023-02-11T16:13:06.364Z,6.30
2023-02-11T16:15:46.152Z,6.30
2023-02-11T16:18:14.625Z,6.20
2023-02-11T16:20:46.494Z,6.20
2023-02-11T16:23:31.675Z,6.30
2023-02-11T16:26:09.190Z,6.30
2023-02-11T16:28:37.258Z,6.30
2023-02-11T16:31:05.226Z,6.20
2023-02-11T16:33:32.147Z,6.20
2023-02-11T16:36:02.050Z,6.20
2023-02-11T16:38:29.867Z,6.20
2023-02-11T16:40:56.565Z,6.20
2023-02-11T16:43:23.398Z,6.10
2023-02-11T16:45:50.594Z,6.20
2023-02-11T16:48:19.554Z,6.30
2023-02-11T16:50:52.192Z,6.20
2023-02-11T16:53:25.048Z,6.20
2023-02-11T16:55:52.918Z,6.20
2023-02-11T16:58:19.952Z,6.20
2023-02-11T17:00:47.743Z,6.20
2023-02-11T17:03:24.644Z,6.20
2023-02-11T17:05:55.744Z,6.20
2023-02-11T17:08:22.808Z,6.30
2023-02-11T17:10:49.896Z,6.20
2023-02-11T17:13:16.901Z,6.30
2023-02-11T17:15:43.679Z,6.30
2023-02-11T17:18:13.446Z,6.40
2023-02-11T17:20:40.910Z,6.40
2023-02-11T17:23:07.802Z,6.40
2023-02-11T17:25:34.519Z,6.40
2023-02-11T17:28:01.277Z,6.30
2023-02-11T17:30:27.972Z,6.40
2023-02-11T17:32:54.684Z,6.40
2023-02-11T17:35:21.432Z,6.40
2023-02-11T17:37:48.477Z,6.40
2023-02-11T17:40:15.388Z,6.40
2023-02-11T17:42:42.101Z,6.40
2023-02-11T17:45:09.561Z,6.40
2023-02-11T17:47:36.726Z,6.30
2023-02-11T17:50:04.114Z,6.30
2023-02-11T17:52:30.857Z,6.30
2023-02-11T17:54:58.083Z,6.40
2023-02-11T17:57:24.884Z,6.40
2023-02-11T17:59:51.668Z,6.40
2023-02-11T18:02:18.482Z,6.40
2023-02-11T18:04:45.222Z,6.40
2023-02-11T18:07:12.265Z,6.40
2023-02-11T18:09:40.432Z,6.40
2023-02-11T18:12:07.926Z,6.40
2023-02-11T18:14:34.710Z,6.40
2023-02-11T18:17:01.587Z,6.40
2023-02-11T18:19:30.575Z,6.40
2023-02-11T18:22:00.828Z,6.40
2023-02-11T18:24:27.790Z,6.50
2023-02-11T18:26:54.531Z,6.50
2023-02-11T18:29:21.272Z,6.50
2023-02-11T18:31:47.999Z,6.50
2023-02-11T18:34:15.854Z,6.50
2023-02-11T18:36:42.888Z,6.40
2023-02-11T18:39:09.750Z,6.50
2023-02-11T18:41:36.596Z,6.50
2023-02-11T18:44:04.928Z,6.50
2023-02-11T18:46:31.727Z,6.50
2023-02-11T18:48:58.715Z,6.40
2023-02-11T18:51:25.851Z,6.40
2023-02-11T18:53:52.980Z,6.50
2023-02-11T18:56:21.948Z,6.50
2023-02-11T18:58:49.248Z,6.50
2023-02-11T19:01:19.027Z,6.40
2023-02-11T19:03:45.967Z,6.40
2023-02-11T19:06:25.554Z,6.50
2023-02-11T19:08:53.629Z,6.40
2023-02-11T19:11:40.647Z,6.50
2023-02-11T19:14:10.239Z,6.50
2023-02-11T19:16:41.975Z,6.50
2023-02-11T19:19:08.713Z,6.50
2023-02-11T19:21:36.281Z,6.50
2023-02-11T19:24:07.685Z,6.50
2023-02-11T19:26:35.538Z,6.50
2023-02-11T19:29:02.734Z,6.50
2023-02-11T19:31:32.146Z,6.50
2023-02-11T19:33:59.756Z,6.50
2023-02-11T19:36:26.714Z,6.50
2023-02-11T19:38:53.901Z,6.50
2023-02-11T19:41:22.491Z,6.50
2023-02-11T19:43:53.373Z,6.50
2023-02-11T19:46:21.248Z,6.50
2023-02-11T19:48:48.825Z,6.50
2023-02-11T19:51:16.165Z,6.50
2023-02-11T19:53:44.209Z,6.50
2023-02-11T19:56:12.683Z,6.50
2023-02-11T19:58:40.058Z,6.50
2023-02-11T20:01:12.222Z,6.50
2023-02-11T20:03:42.145Z,6.50
2023-02-11T20:06:13.318Z,6.50
2023-02-11T20:08:40.366Z,6.50
2023-02-11T20:11:08.200Z,6.50
2023-02-11T20:13:34.882Z,6.50
2023-02-11T20:16:13.409Z,6.50
2023-02-11T20:18:40.592Z,6.50
2023-02-11T20:21:08.188Z,6.50
2023-02-11T20:23:35.863Z,6.40
2023-02-11T20:26:13.126Z,6.40
2023-02-11T20:28:39.793Z,6.40
2023-02-11T20:31:07.178Z,6.30
2023-02-11T20:33:34.859Z,6.30
2023-02-11T20:36:07.828Z,6.30
2023-02-11T20:38:34.875Z,6.30
2023-02-11T20:41:14.358Z,6.30
2023-02-11T20:43:42.717Z,6.30
2023-02-11T20:46:09.435Z,6.30
2023-02-11T20:48:36.207Z,6.30
2023-02-11T20:51:08.520Z,6.30
2023-02-11T20:53:37.270Z,6.30
2023-02-11T20:56:09.691Z,6.30
2023-02-11T20:58:36.714Z,6.30
2023-02-11T21:01:13.846Z,6.30
2023-02-11T21:03:43.723Z,6.20
2023-02-11T21:06:11.384Z,6.20
2023-02-11T21:08:38.359Z,6.20
2023-02-11T21:11:08.807Z,6.10
2023-02-11T21:13:36.775Z,6.10
2023-02-11T21:16:04.394Z,6.10
2023-02-11T21:18:31.136Z,6.00
2023-02-11T21:20:58.786Z,6.00
2023-02-11T21:23:25.982Z,6.00
2023-02-11T21:25:57.081Z,6.00
2023-02-11T21:28:26.466Z,5.90
2023-02-11T21:30:54.876Z,5.90
2023-02-11T21:33:22.428Z,5.90
2023-02-11T21:35:49.560Z,5.80
2023-02-11T21:38:16.502Z,5.90
2023-02-11T21:40:43.205Z,5.80
2023-02-11T21:43:09.838Z,5.80
2023-02-11T21:45:46.038Z,5.80
2023-02-11T21:48:13.324Z,5.80
2023-02-11T21:50:41.325Z,5.80
2023-02-11T21:53:08.727Z,5.80
2023-02-11T21:55:36.167Z,5.80
2023-02-11T21:58:03.061Z,5.80
2023-02-11T22:00:30.484Z,5.70
2023-02-11T22:02:57.186Z,5.70
2023-02-11T22:05:24.065Z,5.70
2023-02-11T22:07:51.013Z,5.70
2023-02-11T22:10:19.017Z,5.70
2023-02-11T22:12:46.350Z,5.70
2023-02-11T22:15:13.354Z,5.70
2023-02-11T22:17:40.324Z,5.70
2023-02-11T22:20:07.999Z,5.70
2023-02-11T22:22:35.327Z,5.70
2023-02-11T22:25:03.234Z,5.70
2023-02-11T22:27:30.053Z,5.70
2023-02-11T22:29:56.716Z,5.60
2023-02-11T22:32:23.417Z,5.60
2023-02-11T22:34:52.939Z,5.60
2023-02-11T22:37:20.399Z,5.60
2023-02-11T22:39:47.150Z,5.60
2023-02-11T22:42:13.802Z,5.60
2023-02-11T22:44:40.550Z,5.50
2023-02-11T22:47:07.238Z,5.50
2023-02-11T22:49:34.378Z,5.50
2023-02-11T22:52:01.210Z,5.50
2023-02-11T22:54:27.987Z,5.60
2023-02-11T22:56:55.372Z,5.60
2023-02-11T22:59:22.193Z,5.60
2023-02-11T23:01:49.328Z,5.60
2023-02-11T23:04:16.993Z,5.60
2023-02-11T23:06:43.932Z,5.70
2023-02-11T23:09:12.436Z,5.70
2023-02-11T23:11:40.110Z,5.70
2023-02-11T23:14:08.665Z,5.60
2023-02-11T23:16:35.668Z,5.60
2023-02-11T23:19:05.496Z,5.60
2023-02-11T23:21:34.209Z,5.60
2023-02-11T23:24:07.691Z,5.50
2023-02-11T23:26:34.632Z,5.50
2023-02-11T23:29:01.427Z,5.50
2023-02-11T23:31:30.737Z,5.50
2023-02-11T23:33:57.621Z,5.50
2023-02-11T23:36:24.489Z,5.40
2023-02-11T23:38:51.532Z,5.50
2023-02-11T23:41:19.265Z,5.50
2023-02-11T23:43:50.776Z,5.50
2023-02-11T23:46:17.949Z,5.50
2023-02-11T23:48:44.760Z,5.50
2023-02-11T23:51:11.517Z,5.50
2023-02-11T23:53:38.987Z,5.50
2023-02-11T23:56:11.024Z,5.50
2023-02-11T23:58:37.958Z,5.50
